FLLK1: Fall River Lake

Data processed at Wed May 22 2019 23:50


All information presented herein is the property of the government of the United States of America and may be revised or deleted at any time without prior notice.
Dissemination of this information without the expressed written consent of the Public Affairs Office, Tulsa District U.S. Army Corps of Engineers is strictly prohibited.
These data are gathered electronically and, as presented, have not undergone any form of quality control. These data are not guaranteed to be valid or correct.
Go to home page.
Go to station list.
Go to home page.

Upstream stations:

Downstream station:
Previous Day
Next Day
Current Day
    
SHEF ID:       FLLK1     Fall River Lake
STATION TYPE:  RESERVOIR
Flood Pool:  Bottom =   948.50, Top =   987.50

               PRECIP ELEVATION   STORAGE    INFLOW   RELEASE  AIR-TEMP  WIND-DIRWIND-SPEED REL-HUMID SOLAR-RAD   VOLTAGE  BAT-LOAD
                   in        ft     ac-ft       cfs       cfs         F       deg       mph         %      W/m2      volt      volt
              Ccp-Rev   Ccp-Rev   Ccp-Rev  Rev-Regi  Rev-Regi   Ccp-Rev   Ccp-Rev   Ccp-Rev   Ccp-Rev   Ccp-Rev   Ccp-Rev   Ccp-Rev
(US/Central)
05/22 00:00      0.00    985.51    224921     15459      4046     62.35    190.70      8.20     63.78      0.00     13.58     13.29
05/22 01:00      0.00    985.57    225499     12204      4051     59.92    230.90      5.50     70.50      0.00     13.53     13.37
05/22 02:00      0.00    985.62    225981      9878      4055     57.69    194.60      3.90     76.27      0.00     13.41     13.37
05/22 03:00      0.00    985.65    226269      8716      4057     57.04    176.60      3.40     77.03      0.00     13.57     13.29
05/22 04:00      0.00    985.68    226558      7787      4060     55.31    190.90      3.40     81.39      0.00     13.50     13.37
05/22 05:00      0.00    985.71    226847      7323      4062     52.68    202.80      3.50     89.97      0.00     13.57     13.37
05/22 06:00      0.00    985.73    227040      7092      4064     51.39    219.80      3.20     91.82      0.00     13.48     13.44
05/22 07:00      0.00    985.76    227329      6628      4066     50.52    253.70      3.10     90.03      5.10     13.58     13.37
05/22 08:00      0.00    985.78    227521      6630      4068     53.74    233.30      3.30     82.19    112.20     14.18     13.44
05/22 09:00      0.00    985.79    227618      6399      4068     57.24    224.90      3.50     68.62    397.30     13.97     13.68
05/22 10:00      0.00    985.82    227907      6167      4071     60.24    205.80      4.70     62.07    586.00     13.49     13.60
05/22 11:00      0.00    985.83    228003      5935      4072     64.00    204.00      6.10     57.61    739.90     13.46     13.37
05/22 12:00      0.00    985.85    228195      5937      4073     67.08    196.60      7.10     59.18    621.90     13.46     13.37
05/22 13:00      0.00    985.86    228292      5938      4074     69.71    192.70      9.20     60.82    881.50     13.48     13.37
05/22 14:00      0.00    985.87    228388      6172      4075     68.85    190.50      9.10     69.35    253.40     13.57     13.37
05/22 15:00      0.00    985.90    228677      5708      4077     68.95    223.50      7.10     72.69    136.10     13.63     13.29
05/22 16:00      0.00    985.92    228870      5942      4079     68.86    254.10      5.00     75.58     95.30     13.64     13.44
05/22 17:00      0.00    985.92    228870      6176      4079     68.31    249.90      5.10     82.47     60.00     13.55     13.37
05/22 18:00      0.00    985.94    229062      5945      4080     68.88    257.40      2.20     82.58     70.20     13.60     13.37
05/22 19:00      0.00    985.96    229255      5480      4082     67.59    355.90      2.40     89.47     73.50     13.55     13.37
05/22 20:00      0.00    985.98    229447      6426      4084     67.37      5.40      4.60     93.92     30.00     13.48     13.37
05/22 21:00      0.00    985.98    229447      5722      4084     66.85     21.50      4.40     98.15      0.40     13.38     13.37
05/22 22:00      0.00    986.02    229838      6202      4087     67.15     35.00      5.10     92.14      0.00     13.40     13.29
05/22 23:00      0.00    986.01    229739      4312      4086     66.42     31.20      5.40     82.19      0.00     13.47     13.29